Language selection

My Weather Profile Weather Topics  | 

Eastern Shore - eastern half: Past 24 Hour Conditions

 

West Chedabucto Bay - 44489

05:00 PM ADT 25 March 2023Buoy position: 45.49N 61.14W
Disclaimer

This table is a summary of hourly weather conditions for the past 24 hours.
Please note that these observations might not always be representative of weather conditions over their associated marine area.

Date / Time
(ADT)
Wind(knots) Wave height(m) Wave period(s) Pressure(kPa) Air tempC) Water tempC)
25 March 2023
17:00 NNW 17 gust 21 0.5 3.3 102.0 2 1
16:00 NNW 19 gust 25 0.6 3.5 101.9 2 1
15:00 NNW 20 gust 27 0.8 3.1 101.9 2 1
14:00 NNW 18 gust 23 0.6 3.5 101.8 2 1
13:00 NNW 18 gust 23 0.7 3.2 101.8 1 1
12:00 N 23 gust 28 0.7 3.4 101.7 1 1
11:00 N 23 gust 30 0.7 3.5 101.7 1 1
10:00 NNW 19 gust 26 0.7 3.9 101.7 0 1
9:00 NNW 21 gust 29 0.8 4.2 101.6 0 1
8:00 NNW 23 gust 29 0.7 4.6 101.4 0 1
7:00 NNW 26 gust 31 0.8 4.7 101.3 0 1
6:00 NNW 24 gust 30 0.8 4.2 101.1 0 1
5:00 NNW 22 gust 28 0.7 4.0 101.1 0 1
4:00 NNW 22 gust 28 0.8 4.6 101.0 -1 1
3:00 NNW 22 gust 27 0.8 4.4 101.0 -1 1
2:00 NNW 19 gust 28 0.7 5.9 100.9 -1 1
1:00 NNW 18 gust 23 0.7 6.1 100.9 -1 1
0:00 NNW 16 gust 23 0.7 6.3 100.8 -1 1
24 March 2023
23:00 NNW 19 gust 23 0.8 5.8 100.7 0 1
22:00 NNW 18 gust 23 0.9 7.7 100.6 0 1
21:00 N 18 gust 22 0.8 7.0 100.5 0 1
20:00 NNW 16 gust 19 0.8 8.1 100.4 0 1
19:00 N 16 gust 19 0.8 7.8 100.2 1 1
18:00 NNE 22 gust 28 0.8 6.1 100.0 1 1
17:00 NNE 20 gust 24 0.8 6.2 99.8 1 1

Zoom-in to make a selection

Map of Atlantic - Newfoundland marine weather areas Banquereau - 44139 East Chedabucto Bay - 44488 West Chedabucto Bay - 44489 Blanc-Sablon Airport Cap Whittle Chevery Natashquan Airport Heath Point Îles de la Madeleine Airport Miscou Island Eskasoni (First Nations) Grand Étang Ingonish Beach North Mountain St.Paul Island J.A. Douglas McCurdy Sydney Airport Charlottetown Airport East Point North Cape Argentia Berry Hill Bonavista Burgeo Cape Race Corner Brook Daniel's Harbour Englee Ferolle Point La Scie Port aux Basques Sagona Island St. Anthony Airport St. John's Int'l Airport St. Lawrence Stephenville Airport Twillingate Winterland Branch Hill Wreckhouse Grates Cove Pool's Island Marticot Island Long Pond Cartwright Airport Mary's Harbour
Legend:
buoy Buoy
land station Land Station

Atlantic - Newfoundland Area

Another Region

What we are doing

Date modified: